createdAt,value
2018-03-19T00:01:54.471Z,100317.20
2018-03-19T00:04:21.870Z,100312.22
2018-03-19T00:06:49.267Z,100320.17
2018-03-19T00:09:16.671Z,100315.59
2018-03-19T00:11:44.070Z,100316.80
2018-03-19T00:14:11.480Z,100320.06
2018-03-19T00:16:38.871Z,100322.77
2018-03-19T00:19:06.293Z,100316.55
2018-03-19T00:21:33.686Z,100322.77
2018-03-19T00:24:01.107Z,100315.88
2018-03-19T00:26:28.495Z,100316.41
2018-03-19T00:28:55.891Z,100315.73
2018-03-19T00:31:23.295Z,100320.45
2018-03-19T00:33:50.733Z,100328.43
2018-03-19T00:36:18.149Z,100314.24
2018-03-19T00:38:45.571Z,100303.44
2018-03-19T00:41:12.989Z,100293.98
2018-03-19T00:43:40.699Z,100295.76
2018-03-19T00:46:08.115Z,100299.80
2018-03-19T00:48:35.515Z,100299.53
2018-03-19T00:51:02.916Z,100297.77
2018-03-19T00:53:30.309Z,100293.19
2018-03-19T00:55:57.724Z,100283.88
2018-03-19T00:58:25.163Z,100286.45
2018-03-19T01:00:52.531Z,100275.77
2018-03-19T01:03:19.942Z,100274.00
2018-03-19T01:05:47.344Z,100286.28
2018-03-19T01:08:14.743Z,100276.84
2018-03-19T01:10:42.162Z,100274.69
2018-03-19T01:13:09.558Z,100295.47
2018-03-19T01:15:37.113Z,100280.75
2018-03-19T01:18:04.507Z,100280.91
2018-03-19T01:20:31.909Z,100280.87
2018-03-19T01:22:59.307Z,100280.20
2018-03-19T01:25:26.708Z,100285.34
2018-03-19T01:27:54.111Z,100289.13
2018-03-19T01:30:21.560Z,100292.08
2018-03-19T01:32:48.902Z,100287.50
2018-03-19T01:35:16.304Z,100281.42
2018-03-19T01:37:43.710Z,100281.14
2018-03-19T01:40:11.111Z,100289.11
2018-03-19T01:42:38.566Z,100288.42
2018-03-19T01:45:05.964Z,100273.98
2018-03-19T01:47:33.375Z,100273.17
2018-03-19T01:50:00.783Z,100279.26
2018-03-19T01:52:40.316Z,100277.22
2018-03-19T01:55:07.708Z,100281.11
2018-03-19T01:57:35.113Z,100287.04
2018-03-19T02:00:02.544Z,100283.15
2018-03-19T02:02:29.935Z,100284.87
2018-03-19T02:04:57.453Z,100282.33
2018-03-19T02:07:24.839Z,100276.66
2018-03-19T02:09:52.235Z,100266.64
2018-03-19T02:12:19.647Z,100266.80
2018-03-19T02:14:47.047Z,100269.91
2018-03-19T02:17:14.463Z,100261.78
2018-03-19T02:19:41.872Z,100266.77
2018-03-19T02:22:09.294Z,100274.86
2018-03-19T02:24:36.696Z,100275.27
2018-03-19T02:27:04.096Z,100263.50
2018-03-19T02:29:31.502Z,100267.01
2018-03-19T02:31:58.894Z,100255.28
2018-03-19T02:34:26.302Z,100265.78
2018-03-19T02:36:53.691Z,100262.14
2018-03-19T02:39:21.102Z,100265.49
2018-03-19T02:41:48.508Z,100266.47
2018-03-19T02:44:15.916Z,100269.12
2018-03-19T02:46:43.318Z,100270.75
2018-03-19T02:49:10.721Z,100274.92
2018-03-19T02:51:38.124Z,100273.98
2018-03-19T02:54:05.532Z,100275.49
2018-03-19T02:56:32.931Z,100265.88
2018-03-19T02:59:00.343Z,100268.59
2018-03-19T03:01:27.744Z,100273.03
2018-03-19T03:03:55.414Z,100273.81
2018-03-19T03:06:22.812Z,100268.58
2018-03-19T03:08:50.203Z,100279.48
2018-03-19T03:11:17.609Z,100270.70
2018-03-19T03:13:45.374Z,100273.96
2018-03-19T03:16:12.766Z,100286.34
2018-03-19T03:18:40.175Z,100282.58
2018-03-19T03:21:07.586Z,100274.84
2018-03-19T03:23:34.974Z,100286.86
2018-03-19T03:26:02.403Z,100291.14
2018-03-19T03:28:29.793Z,100285.87
2018-03-19T03:30:57.205Z,100284.80
2018-03-19T03:33:24.604Z,100293.41
2018-03-19T03:35:52.190Z,100295.16
2018-03-19T03:38:19.599Z,100297.70
2018-03-19T03:40:46.983Z,100294.22
2018-03-19T03:43:14.390Z,100300.55
2018-03-19T03:45:41.791Z,100296.49
2018-03-19T03:48:09.203Z,100304.83
2018-03-19T03:50:36.595Z,100301.31
2018-03-19T03:53:04.016Z,100300.65
2018-03-19T03:55:31.411Z,100294.28
2018-03-19T03:57:58.823Z,100312.07
2018-03-19T04:00:26.235Z,100301.02
2018-03-19T04:02:53.642Z,100306.27
2018-03-19T04:05:21.043Z,100304.92
2018-03-19T04:07:48.454Z,100307.22
2018-03-19T04:10:15.844Z,100306.67
2018-03-19T04:12:43.408Z,100309.48
2018-03-19T04:15:10.805Z,100306.98
2018-03-19T04:17:38.200Z,100308.96
2018-03-19T04:20:06.047Z,100318.52
2018-03-19T04:22:33.438Z,100316.73
2018-03-19T04:25:01.019Z,100315.27
2018-03-19T04:27:28.420Z,100319.53
2018-03-19T04:29:55.936Z,100315.39
2018-03-19T04:32:23.339Z,100308.89
2018-03-19T04:34:50.735Z,100309.70
2018-03-19T04:37:18.143Z,100318.47
2018-03-19T04:39:45.562Z,100315.08
2018-03-19T04:42:13.672Z,100318.02
2018-03-19T04:44:41.059Z,100317.58
2018-03-19T04:47:08.479Z,100313.30
2018-03-19T04:49:35.899Z,100313.65
2018-03-19T04:52:03.295Z,100318.37
2018-03-19T04:54:30.711Z,100319.30
2018-03-19T04:56:58.115Z,100314.84
2018-03-19T04:59:25.649Z,100312.28
2018-03-19T05:01:53.054Z,100318.77
2018-03-19T05:04:20.455Z,100317.26
2018-03-19T05:06:47.880Z,100326.84
2018-03-19T05:09:15.299Z,100320.64
2018-03-19T05:11:43.015Z,100322.61
2018-03-19T05:14:10.429Z,100315.89
2018-03-19T05:16:37.816Z,100320.84
2018-03-19T05:19:05.929Z,100330.55
2018-03-19T05:21:33.319Z,100328.22
2018-03-19T05:24:00.731Z,100325.28
2018-03-19T05:26:28.132Z,100338.97
2018-03-19T05:28:55.544Z,100331.00
2018-03-19T05:31:22.966Z,100334.32
2018-03-19T05:33:50.380Z,100333.34
2018-03-19T05:36:17.775Z,100333.45
2018-03-19T05:38:45.196Z,100345.04
2018-03-19T05:41:12.586Z,100354.09
2018-03-19T05:43:39.998Z,100359.74
2018-03-19T05:46:07.408Z,100355.53
2018-03-19T05:48:34.794Z,100358.00
2018-03-19T05:51:02.312Z,100360.41
2018-03-19T05:53:29.720Z,100365.18
2018-03-19T05:55:57.115Z,100365.11
2018-03-19T05:58:24.527Z,100364.29
2018-03-19T06:00:51.924Z,100362.53
2018-03-19T06:03:19.342Z,100359.47
2018-03-19T06:05:46.740Z,100365.66
2018-03-19T06:08:14.504Z,100364.91
2018-03-19T06:10:41.919Z,100361.92
2018-03-19T06:13:09.319Z,100363.49
2018-03-19T06:15:36.740Z,100362.17
2018-03-19T06:18:04.483Z,100370.73
2018-03-19T06:20:31.916Z,100378.70
2018-03-19T06:22:59.306Z,100378.42
2018-03-19T06:25:26.704Z,100380.81
2018-03-19T06:27:54.095Z,100378.33
2018-03-19T06:30:21.602Z,100376.81
2018-03-19T06:32:49.004Z,100378.46
2018-03-19T06:35:16.403Z,100380.53
2018-03-19T06:37:43.811Z,100373.00
2018-03-19T06:40:11.215Z,100371.92
2018-03-19T06:42:38.603Z,100366.97
2018-03-19T06:45:06.250Z,100375.09
2018-03-19T06:47:33.661Z,100379.67
2018-03-19T06:50:01.047Z,100378.08
2018-03-19T06:52:28.463Z,100372.01
2018-03-19T06:54:55.859Z,100367.20
2018-03-19T06:57:23.262Z,100373.05
2018-03-19T06:59:50.670Z,100372.37
2018-03-19T07:02:16.354Z,100384.62
2018-03-19T07:04:42.051Z,100378.55
2018-03-19T07:07:07.732Z,100377.07
2018-03-19T07:09:33.399Z,100389.33
2018-03-19T07:11:59.075Z,100377.48
2018-03-19T07:14:24.827Z,100377.14
2018-03-19T07:16:50.498Z,100370.77
2018-03-19T07:19:16.166Z,100383.62
2018-03-19T07:21:41.903Z,100383.41
2018-03-19T07:24:07.560Z,100379.17
2018-03-19T07:26:33.246Z,100395.06
2018-03-19T07:28:58.919Z,100404.36
2018-03-19T07:31:24.639Z,100396.08
2018-03-19T07:33:50.419Z,100395.12
2018-03-19T07:36:16.035Z,100399.55
2018-03-19T07:38:41.719Z,100399.66
2018-03-19T07:41:07.395Z,100404.56
2018-03-19T07:43:33.041Z,100397.39
2018-03-19T07:45:58.722Z,100402.92
2018-03-19T07:48:24.803Z,100419.53
2018-03-19T07:50:50.501Z,100411.08
2018-03-19T07:53:16.194Z,100425.08
2018-03-19T07:55:42.145Z,100400.88
2018-03-19T07:58:07.830Z,100402.65
2018-03-19T08:00:33.489Z,100394.27
2018-03-19T08:02:59.172Z,100406.17
2018-03-19T08:05:24.851Z,100412.12
2018-03-19T08:07:50.514Z,100401.11
2018-03-19T08:10:16.195Z,100411.17
2018-03-19T08:12:41.924Z,100412.03
2018-03-19T08:15:07.662Z,100410.42
2018-03-19T08:17:33.339Z,100414.61
2018-03-19T08:19:58.988Z,100403.92
2018-03-19T08:22:24.674Z,100407.86
2018-03-19T08:24:50.343Z,100409.67
2018-03-19T08:27:16.293Z,100402.78
2018-03-19T08:29:42.013Z,100397.29
2018-03-19T08:32:07.690Z,100406.25
2018-03-19T08:34:33.467Z,100408.48
2018-03-19T08:36:59.138Z,100405.58
2018-03-19T08:39:24.826Z,100399.91
2018-03-19T08:41:50.514Z,100417.36
2018-03-19T08:44:16.187Z,100402.13
2018-03-19T08:46:41.870Z,100410.09
2018-03-19T08:49:07.536Z,100420.19
2018-03-19T08:51:33.206Z,100407.97
2018-03-19T08:53:58.875Z,100414.59
2018-03-19T08:56:24.558Z,100420.48
2018-03-19T08:58:50.227Z,100423.91
2018-03-19T09:01:15.963Z,100403.31
2018-03-19T09:03:41.629Z,100402.93
2018-03-19T09:06:07.317Z,100413.49
2018-03-19T09:08:32.987Z,100411.56
2018-03-19T09:10:58.666Z,100402.14
2018-03-19T09:13:24.319Z,100401.05
2018-03-19T09:15:50.028Z,100403.52
2018-03-19T09:18:15.694Z,100404.19
2018-03-19T09:20:41.363Z,100399.71
2018-03-19T09:23:07.058Z,100406.63
2018-03-19T09:25:32.719Z,100401.97
2018-03-19T09:27:58.416Z,100399.89
2018-03-19T09:30:24.090Z,100405.75
2018-03-19T09:32:50.027Z,100406.39
2018-03-19T09:35:15.701Z,100398.75
2018-03-19T09:37:41.362Z,100398.94
2018-03-19T09:40:07.055Z,100412.31
2018-03-19T09:42:32.747Z,100429.33
2018-03-19T09:44:58.427Z,100417.55
2018-03-19T09:47:24.112Z,100426.20
2018-03-19T09:49:49.975Z,100414.74
2018-03-19T09:52:15.675Z,100431.98
2018-03-19T09:54:41.366Z,100420.25
2018-03-19T09:57:07.085Z,100425.41
2018-03-19T09:59:32.761Z,100409.59
2018-03-19T10:01:58.462Z,100404.09
2018-03-19T10:04:24.139Z,100433.09
2018-03-19T10:06:49.850Z,100419.84
2018-03-19T10:09:15.612Z,100413.85
2018-03-19T10:11:41.311Z,100414.76
2018-03-19T10:14:07.010Z,100430.87
2018-03-19T10:16:32.964Z,100410.77
2018-03-19T10:18:58.622Z,100410.28
2018-03-19T10:21:24.279Z,100425.47
2018-03-19T10:23:50.004Z,100402.22
2018-03-19T10:26:15.707Z,100409.95
2018-03-19T10:28:41.399Z,100401.97
2018-03-19T10:31:07.065Z,100419.98
2018-03-19T10:33:32.811Z,100416.59
2018-03-19T10:35:58.423Z,100412.37
2018-03-19T10:38:24.087Z,100428.40
2018-03-19T10:40:49.754Z,100418.55
2018-03-19T10:43:15.447Z,100412.50
2018-03-19T10:45:41.154Z,100416.78
2018-03-19T10:48:07.623Z,100410.12
2018-03-19T10:50:33.554Z,100414.91
2018-03-19T10:52:59.269Z,100413.69
2018-03-19T10:55:25.128Z,100405.05
2018-03-19T10:57:50.796Z,100399.67
2018-03-19T11:00:16.693Z,100401.62
2018-03-19T11:02:49.172Z,100399.64
2018-03-19T11:05:21.204Z,100405.34
2018-03-19T11:07:53.076Z,100410.20
2018-03-19T11:10:18.731Z,100401.58
2018-03-19T11:12:44.425Z,100391.09
2018-03-19T11:15:10.902Z,100388.55
2018-03-19T11:17:36.582Z,100393.27
2018-03-19T11:20:02.816Z,100389.80
2018-03-19T11:22:28.513Z,100386.05
2018-03-19T11:24:54.176Z,100389.11
2018-03-19T11:27:19.852Z,100399.09
2018-03-19T11:29:45.519Z,100388.29
2018-03-19T11:32:11.620Z,100379.19
2018-03-19T11:34:37.304Z,100385.13
2018-03-19T11:37:03.015Z,100381.29
2018-03-19T11:39:28.692Z,100386.33
2018-03-19T11:41:54.389Z,100374.12
2018-03-19T11:44:20.379Z,100376.05
2018-03-19T11:46:46.186Z,100379.87
2018-03-19T11:49:11.880Z,100378.76
2018-03-19T11:51:37.605Z,100378.55
2018-03-19T11:54:03.276Z,100387.47
2018-03-19T11:56:29.087Z,100375.17
2018-03-19T11:58:54.759Z,100368.08
2018-03-19T12:01:20.427Z,100371.92
2018-03-19T12:03:46.123Z,100386.48
2018-03-19T12:06:11.811Z,100373.14
2018-03-19T12:08:37.491Z,100380.14
2018-03-19T12:11:03.233Z,100360.27
2018-03-19T12:13:29.019Z,100359.65
2018-03-19T12:15:54.684Z,100365.69
2018-03-19T12:18:20.395Z,100371.73
2018-03-19T12:20:46.112Z,100372.03
2018-03-19T12:23:11.799Z,100365.72
2018-03-19T12:25:37.698Z,100381.49
2018-03-19T12:28:03.379Z,100372.32
2018-03-19T12:30:29.050Z,100368.52
2018-03-19T12:32:54.739Z,100377.85
2018-03-19T12:35:20.447Z,100380.81
2018-03-19T12:37:46.135Z,100371.09
2018-03-19T12:40:11.840Z,100366.08
2018-03-19T12:42:37.524Z,100377.98
2018-03-19T12:45:03.193Z,100369.58
2018-03-19T12:47:28.879Z,100361.68
2018-03-19T12:49:54.535Z,100361.55
2018-03-19T12:52:20.336Z,100358.59
2018-03-19T12:54:46.050Z,100364.22
2018-03-19T12:57:11.739Z,100360.33
2018-03-19T13:02:32.831Z,100369.66
2018-03-19T13:05:00.235Z,100369.34
2018-03-19T13:07:27.618Z,100365.17
2018-03-19T13:09:55.026Z,100362.31
2018-03-19T13:12:22.410Z,100360.91
2018-03-19T13:14:49.815Z,100363.85
2018-03-19T13:17:17.205Z,100368.38
2018-03-19T13:19:44.781Z,100364.41
2018-03-19T13:22:12.181Z,100351.89
2018-03-19T13:24:39.625Z,100341.47
2018-03-19T13:27:06.997Z,100347.45
2018-03-19T13:29:34.381Z,100342.03
2018-03-19T13:32:01.804Z,100337.19
2018-03-19T13:34:29.163Z,100343.23
2018-03-19T13:36:56.554Z,100335.08
2018-03-19T13:39:23.966Z,100331.41
2018-03-19T13:41:51.424Z,100338.98
2018-03-19T13:44:18.819Z,100333.85
2018-03-19T13:46:46.244Z,100329.65
2018-03-19T13:49:13.645Z,100331.53
2018-03-19T13:51:41.030Z,100330.94
2018-03-19T13:54:08.436Z,100325.91
2018-03-19T13:56:35.823Z,100330.63
2018-03-19T13:59:03.273Z,100340.78
2018-03-19T14:01:30.615Z,100336.38
2018-03-19T14:03:58.155Z,100340.62
2018-03-19T14:06:25.563Z,100330.61
2018-03-19T14:08:52.956Z,100333.73
2018-03-19T14:11:20.361Z,100334.19
2018-03-19T14:13:47.798Z,100330.88
2018-03-19T14:16:15.188Z,100317.56
2018-03-19T14:18:42.603Z,100335.37
2018-03-19T14:21:10.157Z,100326.53
2018-03-19T14:23:37.539Z,100322.22
2018-03-19T14:26:04.932Z,100335.30
2018-03-19T14:28:32.327Z,100321.08
2018-03-19T14:30:59.757Z,100320.38
2018-03-19T14:33:27.144Z,100327.47
2018-03-19T14:35:54.625Z,100327.30
2018-03-19T14:38:21.961Z,100323.28
2018-03-19T14:40:49.334Z,100310.47
2018-03-19T14:43:16.811Z,100322.67
2018-03-19T14:45:44.226Z,100321.46
2018-03-19T14:48:11.611Z,100309.16
2018-03-19T14:50:39.070Z,100319.55
2018-03-19T14:53:06.404Z,100313.89
2018-03-19T14:55:33.791Z,100303.72
2018-03-19T14:58:01.176Z,100302.16
2018-03-19T15:00:28.571Z,100312.95
2018-03-19T15:02:55.967Z,100303.95
2018-03-19T15:05:23.358Z,100316.05
2018-03-19T15:07:50.788Z,100315.37
2018-03-19T15:10:18.187Z,100307.06
2018-03-19T15:12:45.600Z,100316.53
2018-03-19T15:15:12.998Z,100303.62
2018-03-19T15:17:40.401Z,100303.21
2018-03-19T15:20:07.799Z,100297.02
2018-03-19T15:22:35.198Z,100302.42
2018-03-19T15:25:02.593Z,100294.79
2018-03-19T15:27:29.977Z,100293.89
2018-03-19T15:29:57.368Z,100302.06
2018-03-19T15:32:24.753Z,100287.78
2018-03-19T15:34:52.251Z,100284.77
2018-03-19T15:37:19.645Z,100293.28
2018-03-19T15:39:47.051Z,100292.68
2018-03-19T15:42:14.455Z,100287.70
2018-03-19T15:44:41.863Z,100296.56
2018-03-19T15:47:09.244Z,100287.09
2018-03-19T15:49:36.664Z,100295.44
2018-03-19T15:52:04.064Z,100300.48
2018-03-19T15:54:31.469Z,100297.98
2018-03-19T15:56:58.854Z,100295.29
2018-03-19T15:59:26.248Z,100284.77
2018-03-19T16:01:53.661Z,100290.19
2018-03-19T16:04:21.059Z,100291.03
2018-03-19T16:06:48.456Z,100291.81
2018-03-19T16:09:15.842Z,100301.50
2018-03-19T16:11:43.234Z,100290.62
2018-03-19T16:14:10.731Z,100299.19
2018-03-19T16:16:38.118Z,100308.80
2018-03-19T16:19:06.310Z,100289.80
2018-03-19T16:21:33.725Z,100291.12
2018-03-19T16:24:01.116Z,100301.72
2018-03-19T16:26:28.533Z,100301.41
2018-03-19T16:28:55.928Z,100306.70
2018-03-19T16:31:23.600Z,100306.09
2018-03-19T16:33:51.009Z,100303.08
2018-03-19T16:36:18.386Z,100303.16
2018-03-19T16:38:45.766Z,100306.23
2018-03-19T16:41:13.167Z,100310.09
2018-03-19T16:43:40.571Z,100301.92
2018-03-19T16:46:07.980Z,100300.30
2018-03-19T16:48:35.391Z,100296.67
2018-03-19T16:51:02.775Z,100301.72
2018-03-19T16:53:30.467Z,100306.86
2018-03-19T16:55:57.843Z,100309.12
2018-03-19T16:58:25.244Z,100309.44
2018-03-19T17:00:52.638Z,100309.31
2018-03-19T17:03:20.026Z,100313.40
2018-03-19T17:05:47.431Z,100310.53
2018-03-19T17:08:14.824Z,100321.56
2018-03-19T17:10:42.244Z,100321.53
2018-03-19T17:13:09.624Z,100325.19
2018-03-19T17:15:37.123Z,100330.62
2018-03-19T17:18:04.519Z,100323.58
2018-03-19T17:20:31.898Z,100325.39
2018-03-19T17:22:59.443Z,100326.42
2018-03-19T17:25:26.835Z,100330.34
2018-03-19T17:27:54.236Z,100330.58
2018-03-19T17:30:21.753Z,100337.44
2018-03-19T17:32:49.466Z,100334.81
2018-03-19T17:35:16.897Z,100346.02
2018-03-19T17:37:44.312Z,100337.95
2018-03-19T17:40:11.883Z,100339.95
2018-03-19T17:42:39.268Z,100341.55
2018-03-19T17:45:06.691Z,100339.47
2018-03-19T17:47:34.119Z,100336.77
2018-03-19T17:50:01.511Z,100349.31
2018-03-19T17:52:28.894Z,100346.28
2018-03-19T17:54:56.296Z,100349.49
2018-03-19T17:57:23.744Z,100349.14
2018-03-19T17:59:51.107Z,100347.45
2018-03-19T18:02:18.525Z,100350.94
2018-03-19T18:04:45.924Z,100356.42
2018-03-19T18:07:13.337Z,100355.14
2018-03-19T18:09:40.724Z,100362.42
2018-03-19T18:12:08.122Z,100367.90
2018-03-19T18:14:35.535Z,100372.86
2018-03-19T18:17:02.952Z,100372.13
2018-03-19T18:19:30.343Z,100372.03
2018-03-19T18:21:57.746Z,100379.41
2018-03-19T18:24:25.166Z,100374.69
2018-03-19T18:26:52.535Z,100378.97
2018-03-19T18:29:19.927Z,100376.16
2018-03-19T18:31:47.316Z,100381.48
2018-03-19T18:34:14.744Z,100387.90
2018-03-19T18:36:42.104Z,100387.70
2018-03-19T18:39:09.551Z,100394.48
2018-03-19T18:41:36.946Z,100394.11
2018-03-19T18:44:04.338Z,100402.13
2018-03-19T18:46:31.735Z,100401.20
2018-03-19T18:48:59.123Z,100400.56
2018-03-19T18:51:26.539Z,100399.27
2018-03-19T18:53:53.915Z,100397.39
2018-03-19T18:56:21.318Z,100402.05
2018-03-19T18:58:48.719Z,100400.98
2018-03-19T19:01:16.138Z,100399.15
2018-03-19T19:03:43.599Z,100400.67
2018-03-19T19:06:11.267Z,100407.34
2018-03-19T19:08:38.667Z,100407.64
2018-03-19T19:11:06.068Z,100413.41
2018-03-19T19:13:33.477Z,100420.23
2018-03-19T19:16:00.875Z,100413.91
2018-03-19T19:18:28.270Z,100419.12
2018-03-19T19:20:55.687Z,100419.44
2018-03-19T19:23:23.082Z,100427.22
2018-03-19T19:25:50.500Z,100421.59
2018-03-19T19:28:17.903Z,100428.42
2018-03-19T19:30:45.327Z,100403.47
2018-03-19T19:33:12.910Z,100426.33
2018-03-19T19:35:40.307Z,100432.22
2018-03-19T19:38:07.703Z,100430.06
2018-03-19T19:40:35.103Z,100430.78
2018-03-19T19:43:02.487Z,100435.00
2018-03-19T19:45:29.884Z,100431.09
2018-03-19T19:47:57.285Z,100431.14
2018-03-19T19:50:24.698Z,100435.03
2018-03-19T19:52:52.079Z,100433.28
2018-03-19T19:55:19.475Z,100434.95
2018-03-19T19:57:46.887Z,100444.97
2018-03-19T20:00:14.290Z,100444.86
2018-03-19T20:02:41.687Z,100447.42
2018-03-19T20:05:09.074Z,100447.03
2018-03-19T20:07:36.479Z,100446.51
2018-03-19T20:10:03.880Z,100443.82
2018-03-19T20:12:31.259Z,100443.97
2018-03-19T20:14:58.682Z,100443.02
2018-03-19T20:17:26.083Z,100446.16
2018-03-19T20:19:53.493Z,100437.80
2018-03-19T20:22:20.927Z,100439.83
2018-03-19T20:24:48.493Z,100437.43
2018-03-19T20:27:15.956Z,100432.72
2018-03-19T20:29:43.538Z,100448.42
2018-03-19T20:32:10.923Z,100444.91
2018-03-19T20:34:38.442Z,100445.30
2018-03-19T20:37:05.861Z,100442.20
2018-03-19T20:39:33.362Z,100450.73
2018-03-19T20:42:00.819Z,100443.98
2018-03-19T20:44:28.246Z,100441.16
2018-03-19T20:46:55.647Z,100444.82
2018-03-19T20:49:23.059Z,100452.14
2018-03-19T20:51:50.510Z,100446.56
2018-03-19T20:54:18.089Z,100450.36
2018-03-19T20:56:45.565Z,100442.53
2018-03-19T20:59:13.021Z,100447.27
2018-03-19T21:01:40.419Z,100442.41
2018-03-19T21:04:07.831Z,100444.84
2018-03-19T21:06:35.296Z,100450.27
2018-03-19T21:09:02.834Z,100446.90
2018-03-19T21:11:30.259Z,100448.52
2018-03-19T21:13:57.842Z,100446.63
2018-03-19T21:16:25.257Z,100448.64
2018-03-19T21:18:52.697Z,100451.22
2018-03-19T21:21:20.107Z,100450.27
2018-03-19T21:23:47.520Z,100446.08
2018-03-19T21:26:14.936Z,100452.95
2018-03-19T21:28:42.347Z,100454.31
2018-03-19T21:31:09.756Z,100456.07
2018-03-19T21:33:37.162Z,100455.13
2018-03-19T21:36:04.570Z,100457.83
2018-03-19T21:38:31.967Z,100456.34
2018-03-19T21:40:59.388Z,100456.73
2018-03-19T21:43:26.794Z,100452.27
2018-03-19T21:45:54.187Z,100449.69
2018-03-19T21:48:21.592Z,100461.61
2018-03-19T21:50:49.017Z,100455.91
2018-03-19T21:53:16.419Z,100458.35
2018-03-19T21:55:43.808Z,100453.72
2018-03-19T21:58:11.232Z,100452.12
2018-03-19T22:00:38.622Z,100440.34
2018-03-19T22:03:06.041Z,100444.16
2018-03-19T22:05:33.429Z,100450.64
2018-03-19T22:08:00.830Z,100445.09
2018-03-19T22:10:28.223Z,100442.00
2018-03-19T22:12:55.635Z,100442.96
2018-03-19T22:15:23.034Z,100447.70
2018-03-19T22:17:50.495Z,100442.19
2018-03-19T22:20:17.855Z,100437.70
2018-03-19T22:22:45.311Z,100438.13
2018-03-19T22:25:12.722Z,100433.92
2018-03-19T22:27:40.118Z,100436.64
2018-03-19T22:30:07.519Z,100432.58
2018-03-19T22:32:34.926Z,100438.66
2018-03-19T22:35:02.329Z,100431.13
2018-03-19T22:37:29.721Z,100432.33
2018-03-19T22:39:57.114Z,100433.53
2018-03-19T22:42:24.641Z,100431.00
2018-03-19T22:44:52.031Z,100434.23
2018-03-19T22:47:19.452Z,100432.61
2018-03-19T22:49:46.869Z,100424.75
2018-03-19T22:52:14.263Z,100429.63
2018-03-19T22:54:41.674Z,100430.42
2018-03-19T22:57:09.071Z,100432.34
2018-03-19T22:59:36.467Z,100434.89
2018-03-19T23:02:03.882Z,100430.02
2018-03-19T23:04:43.752Z,100438.54
2018-03-19T23:07:11.190Z,100425.56
2018-03-19T23:09:38.626Z,100425.16
2018-03-19T23:12:06.133Z,100422.73
2018-03-19T23:14:33.595Z,100418.28
2018-03-19T23:17:00.987Z,100411.24
2018-03-19T23:19:28.409Z,100405.55
2018-03-19T23:21:55.808Z,100408.27
2018-03-19T23:24:23.211Z,100409.74
2018-03-19T23:26:50.618Z,100406.38
2018-03-19T23:29:18.162Z,100407.05
2018-03-19T23:31:45.559Z,100399.06
2018-03-19T23:34:12.950Z,100395.96
2018-03-19T23:36:40.363Z,100395.02
2018-03-19T23:39:07.766Z,100393.64
2018-03-19T23:41:35.175Z,100391.75
2018-03-19T23:44:02.567Z,100393.11
2018-03-19T23:46:30.114Z,100385.66
2018-03-19T23:48:57.508Z,100394.05
2018-03-19T23:51:24.908Z,100385.41
2018-03-19T23:53:52.335Z,100391.76
2018-03-19T23:56:19.733Z,100390.66
2018-03-19T23:58:47.149Z,100388.36
